createdAt,value
2018-10-18T00:00:30.492Z,26.42
2018-10-18T00:03:02.566Z,28.15
2018-10-18T00:05:34.636Z,29.48
2018-10-18T00:08:06.721Z,28.50
2018-10-18T00:10:38.802Z,29.10
2018-10-18T00:13:10.906Z,30.60
2018-10-18T00:15:42.986Z,25.45
2018-10-18T00:18:15.119Z,26.60
2018-10-18T00:20:47.158Z,27.32
2018-10-18T00:23:19.312Z,29.27
2018-10-18T00:25:51.412Z,26.33
2018-10-18T00:28:23.549Z,25.50
2018-10-18T00:30:55.613Z,30.02
2018-10-18T00:33:27.659Z,26.73
2018-10-18T00:35:59.796Z,28.27
2018-10-18T00:38:31.784Z,24.50
2018-10-18T00:41:04.419Z,26.07
2018-10-18T00:43:36.513Z,24.98
2018-10-18T00:46:08.715Z,25.20
2018-10-18T00:48:40.781Z,26.68
2018-10-18T00:51:12.890Z,26.73
2018-10-18T00:53:44.964Z,23.90
2018-10-18T00:56:17.107Z,24.77
2018-10-18T00:58:49.140Z,24.92
2018-10-18T01:01:21.288Z,26.33
2018-10-18T01:03:53.432Z,25.12
2018-10-18T01:06:25.546Z,26.97
2018-10-18T01:08:57.610Z,25.37
2018-10-18T01:11:29.657Z,23.70
2018-10-18T01:14:01.745Z,30.52
2018-10-18T01:16:34.103Z,27.52
2018-10-18T01:19:06.212Z,33.63
2018-10-18T01:21:38.321Z,25.97
2018-10-18T01:24:10.515Z,28.25
2018-10-18T01:26:42.560Z,27.32
2018-10-18T01:29:14.614Z,25.90
2018-10-18T01:31:46.687Z,23.73
2018-10-18T01:34:18.812Z,26.80
2018-10-18T01:36:50.915Z,24.90
2018-10-18T01:39:23.089Z,25.40
2018-10-18T01:41:55.158Z,27.10
2018-10-18T01:44:27.210Z,26.40
2018-10-18T01:46:59.279Z,24.92
2018-10-18T01:49:31.361Z,25.57
2018-10-18T01:52:03.548Z,25.30
2018-10-18T01:54:35.577Z,26.70
2018-10-18T01:57:07.699Z,28.12
2018-10-18T01:59:39.785Z,32.45
2018-10-18T02:02:11.908Z,27.67
2018-10-18T02:04:43.911Z,28.35
2018-10-18T02:07:16.009Z,27.93
2018-10-18T02:09:48.068Z,29.10
2018-10-18T02:12:20.149Z,30.02
2018-10-18T02:14:52.201Z,30.52
2018-10-18T02:17:24.272Z,25.00
2018-10-18T02:19:56.338Z,30.60
2018-10-18T02:22:28.421Z,27.02
2018-10-18T02:25:00.495Z,26.57
2018-10-18T02:27:32.492Z,23.75
2018-10-18T02:30:04.945Z,26.17
2018-10-18T02:32:36.995Z,25.32
2018-10-18T02:35:09.022Z,24.25
2018-10-18T02:37:41.099Z,24.82
2018-10-18T02:40:13.174Z,25.52
2018-10-18T02:42:45.326Z,27.90
2018-10-18T02:45:17.412Z,27.82
2018-10-18T02:47:49.541Z,28.47
2018-10-18T02:50:21.718Z,24.82
2018-10-18T02:52:53.816Z,24.90
2018-10-18T02:55:25.974Z,27.73
2018-10-18T02:57:58.127Z,30.55
2018-10-18T03:00:30.324Z,27.32
2018-10-18T03:03:02.359Z,30.45
2018-10-18T03:05:34.397Z,29.57
2018-10-18T03:08:06.554Z,25.40
2018-10-18T03:10:38.634Z,31.75
2018-10-18T03:13:10.705Z,25.88
2018-10-18T03:15:42.861Z,24.18
2018-10-18T03:18:14.982Z,27.13
2018-10-18T03:20:47.062Z,29.70
2018-10-18T03:23:19.183Z,29.45
2018-10-18T03:25:51.215Z,27.40
2018-10-18T03:28:23.329Z,27.77
2018-10-18T03:30:55.415Z,28.12
2018-10-18T03:33:27.554Z,29.27
2018-10-18T03:35:59.702Z,29.45
2018-10-18T03:38:31.792Z,30.35
2018-10-18T03:41:04.044Z,29.18
2018-10-18T03:43:36.187Z,30.10
2018-10-18T03:46:08.347Z,33.05
2018-10-18T03:48:40.436Z,27.17
2018-10-18T03:51:12.529Z,31.62
2018-10-18T03:53:44.647Z,32.35
2018-10-18T03:56:16.695Z,29.10
2018-10-18T03:58:48.799Z,29.75
2018-10-18T04:01:20.977Z,32.10
2018-10-18T04:03:53.037Z,30.45
2018-10-18T04:06:25.198Z,32.10
2018-10-18T04:08:57.255Z,32.08
2018-10-18T04:11:29.354Z,30.55
2018-10-18T04:14:01.429Z,30.00
2018-10-18T04:16:33.480Z,29.32
2018-10-18T04:19:05.508Z,31.20
2018-10-18T04:21:37.628Z,31.52
2018-10-18T04:24:09.795Z,33.23
2018-10-18T04:26:41.852Z,28.23
2018-10-18T04:29:13.941Z,35.63
2018-10-18T04:31:45.983Z,31.20
2018-10-18T04:34:18.040Z,32.05
2018-10-18T04:36:50.122Z,30.65
2018-10-18T04:39:22.175Z,29.12
2018-10-18T04:41:54.212Z,33.23
2018-10-18T04:44:26.410Z,31.68
2018-10-18T04:46:58.560Z,33.98
2018-10-18T04:49:30.644Z,32.30
2018-10-18T04:52:02.873Z,31.57
2018-10-18T04:54:34.969Z,29.67
2018-10-18T04:57:07.070Z,33.33
2018-10-18T04:59:39.189Z,32.67
2018-10-18T05:02:11.273Z,33.73
2018-10-18T05:04:54.839Z,31.17
2018-10-18T05:07:27.034Z,29.90
2018-10-18T05:09:59.152Z,32.38
2018-10-18T05:12:31.330Z,33.63
2018-10-18T05:15:03.833Z,30.65
2018-10-18T05:17:35.971Z,31.97
2018-10-18T05:20:08.124Z,31.93
2018-10-18T05:22:40.164Z,27.70
2018-10-18T05:25:12.355Z,29.82
2018-10-18T05:27:44.390Z,41.50
2018-10-18T05:30:16.489Z,30.60
2018-10-18T05:32:48.609Z,30.97
2018-10-18T05:35:20.782Z,30.82
2018-10-18T05:37:52.910Z,34.05
2018-10-18T05:40:24.952Z,33.80
2018-10-18T05:42:57.193Z,30.32
2018-10-18T05:45:29.252Z,28.73
2018-10-18T05:48:01.424Z,31.93
2018-10-18T05:50:33.510Z,30.95
2018-10-18T05:53:05.781Z,32.05
2018-10-18T05:55:37.732Z,31.17
2018-10-18T05:58:09.852Z,30.43
2018-10-18T06:00:42.044Z,28.85
2018-10-18T06:03:14.151Z,32.20
2018-10-18T06:05:46.311Z,32.17
2018-10-18T06:08:18.439Z,31.12
2018-10-18T06:11:01.945Z,36.93
2018-10-18T06:13:34.118Z,35.20
2018-10-18T06:16:06.314Z,30.37
2018-10-18T06:18:38.523Z,34.40
2018-10-18T06:21:10.672Z,29.10
2018-10-18T06:23:42.762Z,37.13
2018-10-18T06:26:14.996Z,34.13
2018-10-18T06:28:47.595Z,33.13
2018-10-18T06:31:19.690Z,34.23
2018-10-18T06:33:51.837Z,31.07
2018-10-18T06:36:23.968Z,31.48
2018-10-18T06:38:56.153Z,36.48
2018-10-18T06:41:28.258Z,34.60
2018-10-18T06:44:00.543Z,40.20
2018-10-18T06:46:32.683Z,37.10
2018-10-18T06:50:08.741Z,38.33
2018-10-18T06:52:40.967Z,36.38
2018-10-18T06:55:13.255Z,32.03
2018-10-18T06:57:45.424Z,35.03
2018-10-18T07:00:22.780Z,35.38
2018-10-18T07:02:54.979Z,36.42
2018-10-18T07:05:27.108Z,31.85
2018-10-18T07:07:59.253Z,35.40
2018-10-18T07:10:31.437Z,31.70
2018-10-18T07:13:03.717Z,34.60
2018-10-18T07:15:35.872Z,31.02
2018-10-18T07:18:08.030Z,32.35
2018-10-18T07:20:40.155Z,29.50
2018-10-18T07:23:12.271Z,29.85
2018-10-18T07:25:44.386Z,31.80
2018-10-18T07:28:16.528Z,28.77
2018-10-18T07:30:48.764Z,31.77
2018-10-18T07:33:20.894Z,31.75
2018-10-18T07:35:53.081Z,29.07
2018-10-18T07:38:25.233Z,32.58
2018-10-18T07:40:57.430Z,31.97
2018-10-18T07:43:29.519Z,29.85
2018-10-18T07:46:01.795Z,31.25
2018-10-18T07:48:34.023Z,28.20
2018-10-18T07:51:06.091Z,28.70
2018-10-18T07:53:38.284Z,25.70
2018-10-18T07:56:10.304Z,26.33
2018-10-18T07:58:42.504Z,26.83
2018-10-18T08:01:14.601Z,26.20
2018-10-18T08:03:46.896Z,25.43
2018-10-18T08:06:19.016Z,24.23
2018-10-18T08:08:51.381Z,23.97
2018-10-18T08:11:23.716Z,23.90
2018-10-18T08:13:55.785Z,22.23
2018-10-18T08:16:30.128Z,25.27
2018-10-18T08:19:02.827Z,24.20
2018-10-18T08:21:35.412Z,23.87
2018-10-18T08:24:07.559Z,25.23
2018-10-18T08:26:39.998Z,23.63
2018-10-18T08:29:12.192Z,24.13
2018-10-18T08:31:45.011Z,24.90
2018-10-18T08:34:17.902Z,24.73
2018-10-18T08:36:50.080Z,23.23
2018-10-18T08:39:22.302Z,25.03
2018-10-18T08:41:54.433Z,23.43
2018-10-18T08:44:27.462Z,24.10
2018-10-18T08:46:59.680Z,24.80
2018-10-18T08:49:31.615Z,25.80
2018-10-18T08:52:03.830Z,28.00
2018-10-18T08:54:35.948Z,25.93
2018-10-18T08:57:08.083Z,25.80
2018-10-18T08:59:40.452Z,25.27
2018-10-18T09:02:12.452Z,23.67
2018-10-18T09:04:44.695Z,26.10
2018-10-18T09:07:16.892Z,26.73
2018-10-18T09:09:49.059Z,23.47
2018-10-18T09:12:21.306Z,24.53
2018-10-18T09:14:53.379Z,24.43
2018-10-18T09:17:25.652Z,25.00
2018-10-18T09:19:58.443Z,25.80
2018-10-18T09:22:30.599Z,26.07
2018-10-18T09:25:02.773Z,26.00
2018-10-18T09:27:34.943Z,28.43
2018-10-18T09:30:08.570Z,24.17
2018-10-18T09:32:40.772Z,26.10
2018-10-18T09:35:13.016Z,25.17
2018-10-18T09:37:45.105Z,26.23
2018-10-18T09:40:17.167Z,24.63
2018-10-18T09:42:49.285Z,25.07
2018-10-18T09:45:21.421Z,24.33
2018-10-18T09:47:53.745Z,26.20
2018-10-18T09:50:25.974Z,26.20
2018-10-18T09:52:58.086Z,26.13
2018-10-18T09:55:30.309Z,27.03
2018-10-18T09:58:02.395Z,25.00
2018-10-18T10:00:40.280Z,27.57
2018-10-18T10:03:14.105Z,27.73
2018-10-18T10:05:46.355Z,26.20
2018-10-18T10:08:18.540Z,26.37
2018-10-18T10:10:50.700Z,27.13
2018-10-18T10:13:22.972Z,25.57
2018-10-18T10:15:54.927Z,25.37
2018-10-18T10:18:26.972Z,25.03
2018-10-18T10:20:59.127Z,25.67
2018-10-18T10:23:31.163Z,25.63
2018-10-18T10:26:03.568Z,25.77
2018-10-18T10:28:35.679Z,25.43
2018-10-18T10:31:08.400Z,26.27
2018-10-18T10:33:40.472Z,27.10
2018-10-18T10:36:12.654Z,24.00
2018-10-18T10:38:44.848Z,25.07
2018-10-18T10:41:17.180Z,26.57
2018-10-18T10:43:49.258Z,23.57
2018-10-18T10:46:21.699Z,25.73
2018-10-18T10:48:53.845Z,26.33
2018-10-18T10:51:25.963Z,22.80
2018-10-18T10:53:58.059Z,25.00
2018-10-18T10:56:30.251Z,24.93
2018-10-18T10:59:10.969Z,26.27
2018-10-18T11:01:43.079Z,24.50
2018-10-18T11:04:15.276Z,24.60
2018-10-18T11:06:47.369Z,24.50
2018-10-18T11:09:19.662Z,24.00
2018-10-18T11:11:51.814Z,22.93
2018-10-18T11:14:23.844Z,25.63
2018-10-18T11:16:55.985Z,24.43
2018-10-18T11:19:28.066Z,24.80
2018-10-18T11:22:00.264Z,24.17
2018-10-18T11:24:32.399Z,23.80
2018-10-18T11:27:04.641Z,25.63
2018-10-18T11:29:36.939Z,23.17
2018-10-18T11:32:09.217Z,22.40
2018-10-18T11:34:41.272Z,23.07
2018-10-18T11:37:13.414Z,23.40
2018-10-18T11:39:45.508Z,21.30
2018-10-18T11:42:17.909Z,22.50
2018-10-18T11:44:49.952Z,22.73
2018-10-18T11:47:22.411Z,22.10
2018-10-18T11:49:54.605Z,23.73
2018-10-18T11:52:26.867Z,22.20
2018-10-18T11:54:58.996Z,21.90
2018-10-18T11:57:31.213Z,23.23
2018-10-18T12:00:04.245Z,22.70
2018-10-18T12:02:36.532Z,24.40
2018-10-18T12:05:08.819Z,21.30
2018-10-18T12:07:40.939Z,22.00
2018-10-18T12:10:13.452Z,20.90
2018-10-18T12:12:45.761Z,21.90
2018-10-18T12:15:17.926Z,22.73
2018-10-18T12:17:50.037Z,22.20
2018-10-18T12:20:22.194Z,20.03
2018-10-18T12:22:54.383Z,22.67
2018-10-18T12:25:26.442Z,24.17
2018-10-18T12:27:58.585Z,24.33
2018-10-18T12:30:30.675Z,23.20
2018-10-18T12:33:02.784Z,23.53
2018-10-18T12:35:34.868Z,22.50
2018-10-18T12:38:07.121Z,21.93
2018-10-18T12:40:39.198Z,21.93
2018-10-18T12:43:12.963Z,23.03
2018-10-18T12:45:45.027Z,22.80
2018-10-18T12:48:19.206Z,22.30
2018-10-18T12:50:51.677Z,21.60
2018-10-18T12:53:24.252Z,22.23
2018-10-18T12:55:56.741Z,22.33
2018-10-18T12:58:29.300Z,22.50
2018-10-18T13:01:01.969Z,20.50
2018-10-18T13:03:34.663Z,20.63
2018-10-18T13:06:07.463Z,21.63
2018-10-18T13:08:40.329Z,21.97
2018-10-18T13:11:13.222Z,21.23
2018-10-18T13:13:46.001Z,20.83
2018-10-18T13:16:18.677Z,21.07
2018-10-18T13:18:51.875Z,21.93
2018-10-18T13:21:24.661Z,21.47
2018-10-18T13:23:57.542Z,20.13
2018-10-18T13:26:30.324Z,20.23
2018-10-18T13:29:04.134Z,20.40
2018-10-18T13:31:37.236Z,21.40
2018-10-18T13:34:10.583Z,20.40
2018-10-18T13:36:43.109Z,19.50
2018-10-18T13:39:16.157Z,19.73
2018-10-18T13:41:48.647Z,19.87
2018-10-18T13:44:21.227Z,19.27
2018-10-18T13:46:53.827Z,19.53
2018-10-18T13:49:26.233Z,16.70
2018-10-18T13:51:58.782Z,19.50
2018-10-18T13:54:31.574Z,18.50
2018-10-18T13:57:04.656Z,19.30
2018-10-18T13:59:48.603Z,18.70
2018-10-18T14:02:21.446Z,20.57
2018-10-18T14:04:53.860Z,18.03
2018-10-18T14:07:26.851Z,17.80
2018-10-18T14:09:59.432Z,17.57
2018-10-18T14:12:32.216Z,17.63
2018-10-18T14:15:05.712Z,18.83
2018-10-18T14:17:38.424Z,18.00
2018-10-18T14:20:11.444Z,16.90
2018-10-18T14:22:43.861Z,18.87
2018-10-18T14:25:16.447Z,17.70
2018-10-18T14:27:49.129Z,16.50
2018-10-18T14:30:21.782Z,20.90
2018-10-18T14:32:54.385Z,17.63
2018-10-18T14:35:26.869Z,17.63
2018-10-18T14:37:59.786Z,18.77
2018-10-18T14:40:32.632Z,19.10
2018-10-18T14:43:05.419Z,19.73
2018-10-18T14:45:38.110Z,16.27
2018-10-18T14:48:10.775Z,18.33
2018-10-18T14:50:43.981Z,17.53
2018-10-18T14:53:16.453Z,17.20
2018-10-18T14:55:48.932Z,17.40
2018-10-18T14:58:21.821Z,16.93
2018-10-18T15:00:54.595Z,16.40
2018-10-18T15:03:27.276Z,16.57
2018-10-18T15:05:59.959Z,15.50
2018-10-18T15:08:33.152Z,17.27
2018-10-18T15:11:06.105Z,17.40
2018-10-18T15:13:38.728Z,15.37
2018-10-18T15:16:11.522Z,16.07
2018-10-18T15:18:45.165Z,16.93
2018-10-18T15:21:18.148Z,15.00
2018-10-18T15:23:50.790Z,15.97
2018-10-18T15:26:23.466Z,15.30
2018-10-18T15:28:55.759Z,15.83
2018-10-18T15:31:28.312Z,15.80
2018-10-18T15:34:01.096Z,14.23
2018-10-18T15:36:33.893Z,15.80
2018-10-18T15:39:08.019Z,15.47
2018-10-18T15:41:41.093Z,16.80
2018-10-18T15:44:13.735Z,14.50
2018-10-18T15:46:46.148Z,13.13
2018-10-18T15:49:18.827Z,14.47
2018-10-18T15:51:51.512Z,14.43
2018-10-18T15:54:24.351Z,13.60
2018-10-18T15:56:56.887Z,12.10
2018-10-18T15:59:29.349Z,12.57
2018-10-18T16:02:01.725Z,19.90
2018-10-18T16:04:34.199Z,12.97
2018-10-18T16:07:06.984Z,13.80
2018-10-18T16:09:39.772Z,13.40
2018-10-18T16:12:12.462Z,16.80
2018-10-18T16:14:45.232Z,12.47
2018-10-18T16:17:17.781Z,17.70
2018-10-18T16:19:50.399Z,17.53
2018-10-18T16:22:23.082Z,18.63
2018-10-18T16:24:55.765Z,14.83
2018-10-18T16:27:28.443Z,14.20
2018-10-18T16:30:00.968Z,15.83
2018-10-18T16:32:33.509Z,13.67
2018-10-18T16:35:06.960Z,17.37
2018-10-18T16:37:42.449Z,17.90
2018-10-18T16:40:15.234Z,13.57
2018-10-18T16:42:48.323Z,16.30
2018-10-18T16:45:25.214Z,14.57
2018-10-18T16:47:57.879Z,14.40
2018-10-18T16:50:32.927Z,16.43
2018-10-18T16:53:05.693Z,16.47
2018-10-18T16:55:38.274Z,13.40
2018-10-18T16:58:10.564Z,14.10
2018-10-18T17:00:43.227Z,15.70
2018-10-18T17:03:15.878Z,14.80
2018-10-18T17:05:48.668Z,15.93
2018-10-18T17:08:22.616Z,17.40
2018-10-18T17:10:56.496Z,14.53
2018-10-18T17:13:29.916Z,16.43
2018-10-18T17:16:02.876Z,14.60
2018-10-18T17:21:18.670Z,13.57
2018-10-18T17:23:51.387Z,16.00
2018-10-18T17:26:24.209Z,16.03
2018-10-18T17:28:56.854Z,15.73
2018-10-18T17:31:29.426Z,15.77
2018-10-18T17:34:02.068Z,15.97
2018-10-18T17:36:34.703Z,14.87
2018-10-18T17:39:09.226Z,15.67
2018-10-18T17:41:41.702Z,15.67
2018-10-18T17:44:14.379Z,15.07
2018-10-18T17:46:46.753Z,15.30
2018-10-18T17:49:19.530Z,16.50
2018-10-18T17:51:52.324Z,16.63
2018-10-18T17:54:25.201Z,17.83
2018-10-18T17:56:57.889Z,17.47
2018-10-18T17:59:30.464Z,16.53
2018-10-18T18:02:03.285Z,16.73
2018-10-18T18:04:36.238Z,17.07
2018-10-18T18:07:08.508Z,17.77
2018-10-18T18:09:40.911Z,16.70
2018-10-18T18:12:13.467Z,17.23
2018-10-18T18:14:46.659Z,17.73
2018-10-18T18:17:19.336Z,16.30
2018-10-18T18:19:51.691Z,20.57
2018-10-18T18:22:24.293Z,18.23
2018-10-18T18:24:57.287Z,17.93
2018-10-18T18:27:29.965Z,21.93
2018-10-18T18:30:03.161Z,19.43
2018-10-18T18:32:35.945Z,19.70
2018-10-18T18:35:08.520Z,18.07
2018-10-18T18:37:40.996Z,18.27
2018-10-18T18:40:13.683Z,20.67
2018-10-18T18:42:46.362Z,21.83
2018-10-18T18:45:22.509Z,19.00
2018-10-18T18:47:55.003Z,20.70
2018-10-18T18:50:27.477Z,20.17
2018-10-18T18:53:00.120Z,18.97
2018-10-18T18:55:32.848Z,19.27
2018-10-18T18:58:05.634Z,20.87
2018-10-18T19:00:38.218Z,22.97
2018-10-18T19:03:10.926Z,27.23
2018-10-18T19:05:43.368Z,22.77
2018-10-18T19:08:16.048Z,23.67
2018-10-18T19:10:48.427Z,22.00
2018-10-18T19:13:20.735Z,20.73
2018-10-18T19:15:53.578Z,22.57
2018-10-18T19:18:26.269Z,24.13
2018-10-18T19:20:58.758Z,25.13
2018-10-18T19:23:31.225Z,27.40
2018-10-18T19:26:03.898Z,26.77
2018-10-18T19:28:36.505Z,25.30
2018-10-18T19:31:09.164Z,25.77
2018-10-18T19:33:41.939Z,27.30
2018-10-18T19:36:14.634Z,24.87
2018-10-18T19:38:47.144Z,27.07
2018-10-18T19:41:19.896Z,27.90
2018-10-18T19:43:54.078Z,27.57
2018-10-18T19:46:26.607Z,28.80
2018-10-18T19:48:59.177Z,29.73
2018-10-18T19:51:31.751Z,28.40
2018-10-18T19:54:04.829Z,29.47
2018-10-18T19:56:37.311Z,30.00
2018-10-18T19:59:09.989Z,29.77
2018-10-18T20:01:42.567Z,31.17
2018-10-18T20:04:15.353Z,30.93
2018-10-18T20:06:49.467Z,33.43
2018-10-18T20:09:21.942Z,32.40
2018-10-18T20:11:54.535Z,36.07
2018-10-18T20:14:27.200Z,32.23
2018-10-18T20:16:59.884Z,35.83
2018-10-18T20:19:32.467Z,38.20
2018-10-18T20:22:07.807Z,36.20
2018-10-18T20:24:40.466Z,34.10
2018-10-18T20:27:12.964Z,35.97
2018-10-18T20:29:45.343Z,35.93
2018-10-18T20:32:17.538Z,37.77
2018-10-18T20:34:49.879Z,37.13
2018-10-18T20:37:22.255Z,38.07
2018-10-18T20:39:54.883Z,40.43
2018-10-18T20:42:27.514Z,40.40
2018-10-18T20:44:59.952Z,43.17
2018-10-18T20:47:32.674Z,41.37
2018-10-18T20:50:05.459Z,44.60
2018-10-18T20:52:38.174Z,43.13
2018-10-18T20:55:10.931Z,45.27
2018-10-18T20:57:43.407Z,42.90
2018-10-18T21:00:16.159Z,40.37
2018-10-18T21:02:48.764Z,43.97
2018-10-18T21:05:21.099Z,44.57
2018-10-18T21:07:53.830Z,45.17
2018-10-18T21:10:26.503Z,44.17
2018-10-18T21:12:59.258Z,46.70
2018-10-18T21:15:31.769Z,50.90
2018-10-18T21:18:04.804Z,47.63
2018-10-18T21:20:37.334Z,44.30
2018-10-18T21:23:09.872Z,49.30
2018-10-18T21:25:42.392Z,46.67
2018-10-18T21:28:15.074Z,47.10
2018-10-18T21:30:47.653Z,48.03
2018-10-18T21:33:20.451Z,50.17
2018-10-18T21:35:52.922Z,49.07
2018-10-18T21:38:25.497Z,50.87
2018-10-18T21:40:58.117Z,50.23
2018-10-18T21:43:30.860Z,56.33
2018-10-18T21:46:03.756Z,54.60
2018-10-18T21:48:36.536Z,58.97
2018-10-18T21:51:09.331Z,57.80
2018-10-18T21:53:41.848Z,56.57
2018-10-18T21:56:14.573Z,61.40
2018-10-18T21:58:46.820Z,57.07
2018-10-18T22:01:20.649Z,60.77
2018-10-18T22:03:53.139Z,56.43
2018-10-18T22:06:25.580Z,59.27
2018-10-18T22:08:58.311Z,62.30
2018-10-18T22:11:31.177Z,56.73
2018-10-18T22:14:03.754Z,62.20
2018-10-18T22:16:37.313Z,62.20
2018-10-18T22:19:10.036Z,63.50
2018-10-18T22:21:42.514Z,63.33
2018-10-18T22:24:15.094Z,73.15
2018-10-18T22:26:47.675Z,69.67
2018-10-18T22:29:20.153Z,64.05
